createdAt,value
2023-08-17T00:00:50.088Z,3.10
2023-08-17T00:05:55.486Z,3.03
2023-08-17T00:11:01.069Z,2.30
2023-08-17T00:16:06.694Z,2.67
2023-08-17T00:21:12.389Z,2.80
2023-08-17T00:26:18.072Z,3.08
2023-08-17T00:31:23.900Z,2.50
2023-08-17T00:36:30.182Z,3.38
2023-08-17T00:41:35.676Z,2.42
2023-08-17T00:46:41.548Z,2.88
2023-08-17T00:51:47.296Z,2.60
2023-08-17T00:56:55.538Z,2.75
2023-08-17T01:02:01.111Z,2.92
2023-08-17T01:07:07.477Z,2.97
2023-08-17T01:12:33.159Z,3.42
2023-08-17T01:18:18.704Z,2.88
2023-08-17T01:23:24.460Z,2.60
2023-08-17T01:28:31.934Z,2.88
2023-08-17T01:33:53.923Z,3.15
2023-08-17T01:39:01.628Z,3.33
2023-08-17T01:44:08.953Z,3.30
2023-08-17T01:49:14.577Z,3.75
2023-08-17T01:54:20.324Z,3.28
2023-08-17T01:59:25.641Z,3.22
2023-08-17T02:04:31.356Z,3.53
2023-08-17T02:09:36.921Z,3.63
2023-08-17T02:14:45.563Z,3.22
2023-08-17T02:19:51.326Z,3.78
2023-08-17T02:24:57.198Z,3.08
2023-08-17T02:30:05.777Z,3.50
2023-08-17T02:35:12.288Z,3.65
2023-08-17T02:40:17.587Z,3.63
2023-08-17T02:45:23.599Z,3.72
2023-08-17T02:50:29.071Z,3.55
2023-08-17T02:55:34.641Z,3.38
2023-08-17T03:00:40.119Z,3.33
2023-08-17T03:05:45.628Z,3.60
2023-08-17T03:10:51.133Z,3.40
2023-08-17T03:15:57.577Z,4.57
2023-08-17T03:21:03.009Z,3.63
2023-08-17T03:26:08.463Z,4.03
2023-08-17T03:31:16.681Z,3.60
2023-08-17T03:36:22.159Z,3.72
2023-08-17T03:41:28.128Z,4.13
2023-08-17T03:46:35.652Z,4.00
2023-08-17T03:51:41.119Z,3.88
2023-08-17T03:56:47.616Z,3.22
2023-08-17T04:01:53.258Z,3.10
2023-08-17T04:06:57.771Z,3.70
2023-08-17T04:12:10.838Z,3.40
2023-08-17T04:17:16.179Z,3.10
2023-08-17T04:22:22.156Z,3.63
2023-08-17T04:27:27.986Z,3.83
2023-08-17T04:32:34.331Z,3.53
2023-08-17T04:37:41.286Z,3.72
2023-08-17T04:42:49.407Z,3.88
2023-08-17T04:47:55.343Z,3.88
2023-08-17T04:53:00.815Z,3.47
2023-08-17T04:58:05.119Z,3.60
2023-08-17T05:03:17.007Z,4.25
2023-08-17T05:08:29.613Z,3.58
2023-08-17T05:13:34.625Z,3.35
2023-08-17T05:18:43.553Z,4.85
2023-08-17T05:23:52.972Z,4.32
2023-08-17T05:28:59.090Z,4.45
2023-08-17T05:34:04.243Z,4.45
2023-08-17T05:39:09.380Z,5.72
2023-08-17T05:44:15.402Z,5.03
2023-08-17T05:49:19.698Z,4.15
2023-08-17T05:54:23.796Z,3.78
2023-08-17T05:59:28.211Z,3.92
2023-08-17T06:04:34.548Z,3.63
2023-08-17T06:09:38.598Z,3.75
2023-08-17T06:14:44.189Z,3.83
2023-08-17T06:24:52.543Z,2.80
2023-08-17T06:29:57.742Z,2.22
2023-08-17T06:35:01.938Z,2.38
2023-08-17T06:40:13.154Z,2.05
2023-08-17T06:45:20.081Z,2.50
2023-08-17T06:50:24.301Z,2.45
2023-08-17T06:55:28.693Z,2.42
2023-08-17T07:00:33.380Z,2.75
2023-08-17T07:05:37.835Z,2.80
2023-08-17T07:10:42.104Z,2.92
2023-08-17T07:15:46.198Z,2.78
2023-08-17T07:20:51.026Z,2.67
2023-08-17T07:25:55.527Z,2.22
2023-08-17T07:30:59.680Z,3.15
2023-08-17T07:36:03.843Z,2.33
2023-08-17T07:41:07.966Z,4.85
2023-08-17T07:46:12.197Z,2.80
2023-08-17T07:51:16.626Z,3.00
2023-08-17T07:56:20.870Z,2.58
2023-08-17T08:01:24.965Z,2.80
2023-08-17T08:06:29.058Z,2.67
2023-08-17T08:11:33.295Z,2.95
2023-08-17T08:16:37.482Z,2.85
2023-08-17T08:21:41.768Z,2.42
2023-08-17T08:26:45.775Z,2.65
2023-08-17T08:31:50.213Z,2.40
2023-08-17T08:36:54.717Z,2.38
2023-08-17T08:41:59.904Z,2.65
2023-08-17T08:47:04.178Z,2.35
2023-08-17T08:52:20.601Z,2.03
2023-08-17T08:57:26.144Z,2.38
2023-08-17T09:02:31.778Z,2.38
2023-08-17T09:07:37.181Z,2.35
2023-08-17T09:12:42.106Z,2.22
2023-08-17T09:17:46.700Z,2.60
2023-08-17T09:22:54.310Z,2.55
2023-08-17T09:27:59.323Z,2.13
2023-08-17T09:33:06.698Z,2.70
2023-08-17T09:38:10.822Z,2.22
2023-08-17T09:43:16.777Z,2.42
2023-08-17T09:48:22.104Z,2.30
2023-08-17T09:53:26.561Z,1.70
2023-08-17T09:58:31.595Z,2.58
2023-08-17T10:03:39.730Z,2.63
2023-08-17T10:08:54.434Z,2.25
2023-08-17T10:14:11.770Z,2.35
2023-08-17T10:19:33.266Z,2.63
2023-08-17T10:24:40.057Z,2.35
2023-08-17T10:29:46.510Z,2.63
2023-08-17T10:34:53.369Z,2.60
2023-08-17T10:39:57.533Z,2.42
2023-08-17T10:45:04.424Z,2.47
2023-08-17T10:50:29.772Z,2.47
2023-08-17T10:55:39.208Z,2.53
2023-08-17T11:00:46.403Z,3.15
2023-08-17T11:05:57.869Z,1.98
2023-08-17T11:11:12.957Z,2.83
2023-08-17T11:16:21.204Z,2.85
2023-08-17T11:21:25.404Z,2.95
2023-08-17T11:31:41.622Z,2.97
2023-08-17T11:36:45.859Z,2.78
2023-08-17T11:41:51.155Z,2.67
2023-08-17T11:46:55.680Z,2.33
2023-08-17T11:52:01.745Z,3.13
2023-08-17T11:57:06.428Z,2.30
2023-08-17T12:02:11.962Z,2.30
2023-08-17T12:07:18.162Z,3.72
2023-08-17T12:12:24.612Z,2.20
2023-08-17T12:17:29.142Z,2.50
2023-08-17T12:22:33.371Z,2.38
2023-08-17T12:27:37.887Z,2.50
2023-08-17T12:32:41.998Z,3.00
2023-08-17T12:37:46.087Z,3.33
2023-08-17T12:42:50.893Z,2.60
2023-08-17T12:47:54.994Z,3.17
2023-08-17T12:52:59.212Z,4.05
2023-08-17T12:58:04.670Z,3.47
2023-08-17T13:03:10.033Z,3.33
2023-08-17T13:08:14.990Z,2.97
2023-08-17T13:13:19.260Z,4.20
2023-08-17T13:18:23.461Z,4.57
2023-08-17T13:23:27.614Z,3.72
2023-08-17T13:28:33.059Z,3.80
2023-08-17T13:33:38.599Z,3.90
2023-08-17T13:38:45.159Z,2.90
2023-08-17T13:43:50.780Z,3.22
2023-08-17T13:48:55.844Z,3.53
2023-08-17T13:53:59.943Z,3.00
2023-08-17T13:59:05.711Z,3.05
2023-08-17T14:09:19.498Z,3.38
2023-08-17T14:14:25.024Z,3.83
2023-08-17T14:19:31.085Z,3.50
2023-08-17T14:24:36.702Z,3.08
2023-08-17T14:34:54.727Z,3.42
2023-08-17T14:39:59.968Z,3.65
2023-08-17T14:45:08.094Z,3.55
2023-08-17T14:50:15.691Z,3.95
2023-08-17T14:55:21.167Z,3.50
2023-08-17T15:00:27.579Z,3.47
2023-08-17T15:05:39.293Z,3.70
2023-08-17T15:10:44.855Z,4.63
2023-08-17T15:15:50.528Z,3.40
2023-08-17T15:20:56.177Z,3.42
2023-08-17T15:26:01.719Z,3.38
2023-08-17T15:31:07.535Z,3.85
2023-08-17T15:36:13.839Z,3.25
2023-08-17T15:41:20.818Z,3.50
2023-08-17T15:46:26.492Z,3.55
2023-08-17T15:51:32.191Z,3.33
2023-08-17T15:56:38.023Z,3.03
2023-08-17T16:01:43.729Z,3.13
2023-08-17T16:06:49.318Z,3.67
2023-08-17T16:11:55.656Z,3.88
2023-08-17T16:17:02.305Z,3.28
2023-08-17T16:22:08.436Z,3.97
2023-08-17T16:27:13.907Z,3.00
2023-08-17T16:32:19.639Z,3.50
2023-08-17T16:37:25.627Z,3.47
2023-08-17T16:42:31.069Z,3.00
2023-08-17T16:47:38.086Z,3.50
2023-08-17T16:52:43.857Z,2.90
2023-08-17T16:57:49.299Z,3.38
2023-08-17T17:02:54.944Z,2.60
2023-08-17T17:08:00.788Z,3.10
2023-08-17T17:13:06.605Z,3.60
2023-08-17T17:18:13.025Z,2.95
2023-08-17T17:23:18.574Z,2.75
2023-08-17T17:28:23.854Z,2.80
2023-08-17T17:33:29.507Z,2.90
2023-08-17T17:38:35.245Z,3.70
2023-08-17T17:43:40.835Z,3.33
2023-08-17T17:48:48.331Z,3.22
2023-08-17T17:53:53.470Z,3.10
2023-08-17T17:58:59.368Z,3.38
2023-08-17T18:04:05.220Z,3.40
2023-08-17T18:09:10.852Z,3.88
2023-08-17T18:14:16.636Z,3.05
2023-08-17T18:19:22.378Z,3.22
2023-08-17T18:24:28.035Z,3.55
2023-08-17T18:29:33.736Z,3.42
2023-08-17T18:34:39.877Z,3.97
2023-08-17T18:39:45.029Z,3.65
2023-08-17T18:44:50.657Z,4.05
2023-08-17T18:49:56.232Z,3.42
2023-08-17T18:55:06.885Z,3.28
2023-08-17T19:00:13.133Z,3.30
2023-08-17T19:05:19.489Z,3.33
2023-08-17T19:15:30.332Z,3.15
2023-08-17T19:20:36.477Z,3.05
2023-08-17T19:25:41.565Z,3.35
2023-08-17T19:30:47.123Z,3.95
2023-08-17T19:35:52.645Z,3.30
2023-08-17T19:40:58.149Z,3.15
2023-08-17T19:46:03.172Z,3.33
2023-08-17T19:51:08.403Z,4.43
2023-08-17T19:56:13.886Z,3.38
2023-08-17T20:01:19.430Z,3.88
2023-08-17T20:06:24.964Z,3.30
2023-08-17T20:11:29.615Z,3.42
2023-08-17T20:16:35.300Z,3.22
2023-08-17T20:21:40.929Z,4.03
2023-08-17T20:26:47.465Z,4.10
2023-08-17T20:31:54.292Z,4.10
2023-08-17T20:36:59.936Z,4.20
2023-08-17T20:42:13.987Z,4.35
2023-08-17T20:47:19.932Z,4.05
2023-08-17T20:52:26.063Z,4.20
2023-08-17T20:57:31.861Z,4.53
2023-08-17T21:02:37.879Z,3.92
2023-08-17T21:07:43.330Z,4.10
2023-08-17T21:12:49.621Z,4.40
2023-08-17T21:17:55.033Z,4.28
2023-08-17T21:23:00.476Z,4.85
2023-08-17T21:28:06.304Z,5.00
2023-08-17T21:33:12.095Z,4.90
2023-08-17T21:38:17.140Z,5.40
2023-08-17T21:43:22.831Z,4.80
2023-08-17T21:48:29.436Z,4.65
2023-08-17T21:53:34.918Z,4.07
2023-08-17T21:58:40.544Z,4.50
2023-08-17T22:03:46.294Z,3.90
2023-08-17T22:08:51.967Z,5.22
2023-08-17T22:13:58.103Z,4.35
2023-08-17T22:19:03.692Z,3.85
2023-08-17T22:24:09.857Z,3.97
2023-08-17T22:29:15.454Z,4.45
2023-08-17T22:34:21.022Z,4.60
2023-08-17T22:39:27.940Z,4.72
2023-08-17T22:44:33.362Z,4.53
2023-08-17T22:49:39.310Z,4.25
2023-08-17T22:54:44.861Z,4.72
2023-08-17T22:59:50.397Z,4.28
2023-08-17T23:04:55.802Z,4.63
2023-08-17T23:10:01.307Z,4.25
2023-08-17T23:15:08.953Z,4.00
2023-08-17T23:20:15.288Z,4.53
2023-08-17T23:25:20.782Z,4.47
2023-08-17T23:30:26.110Z,4.05
2023-08-17T23:35:31.623Z,4.25
2023-08-17T23:40:37.077Z,4.20
2023-08-17T23:45:42.830Z,4.78
2023-08-17T23:50:48.428Z,4.38
2023-08-17T23:55:53.987Z,3.80
